Aérodrome :
LOGIN :

S'inscrire | Disclaimer

   EN    FR    IT 

 










Légende :    VFR   VFR Marginal   IFR   IFR Intensif   IFR Très Intensif
Visi : 
Plafond : 
>= 8 km
>= 3000ft
5 à 8 km
1000 à 3000 ft
1500m à 5 km
500 à 1000 ft
800 à 1500m
200 à 500 ft
< 800m
< 200 ft
Symboles :   Orages  Brouillard  Fortes neiges  Fortes précipitations  Vent > 20 kt
SIGMETs :   Divers  Orages  Givrage  Turbulence  Onde Orograph.  Cendres Volcan.







- Altitude de l'aérodrome : 290 ft
- Code IATA : LAI
- Voir les cartes d'approche


LFRO - Lannion

DERNIER METAR :
  • 170330Z AUTO 15003KT CAVOK 09/09 Q1021

METARs EXPIRÉS :
  • 170300Z AUTO 13004KT CAVOK 09/08 Q1021
  • 170230Z AUTO 13003KT CAVOK 08/07 Q1021
  • 170200Z AUTO VRB02KT 9999 FEW038 SCT068 BKN084 09/07 Q1022
  • 170130Z AUTO VRB03KT 9999 BKN037 OVC088 09/07 Q1022
  • 170100Z AUTO 14002KT 9999 OVC037 09/08 Q1022

TAF TAF LFRO
Valide du 16 à 12h jusqu'au 17 à 12h UTC


161100Z 1612/1712 21015G25KT 9999 FEW030
BECMG 1706/1709 12030KT 5000 -RA OVC010
Pas de NOTAMs connus pour ce terrain.
1 SIGMET publié pour la FIR Brest (LFRR) :
 
Orages noyés dans la masse
LFRR SIGMET 1 VALID 170300/170500 LFPW
LFRR BREST FIR/UIR EMBD TS OBS WI N4430 W00530 - N4500 W00800 - N4745 W00800 - N4745 W00445 TOP FL380 MOV NE 15KT NC=



MET'MAP, la Météo Aéronautique d'un coup d'oeil ! - Copyright ORBIFLY Décembre 2007 - Disclaimer

ORBIFLY MET'MAP TEAM :

Programmation & Développement : Alexandra Zaïnal
Conception & Développement : Baudouin d'Aumeries
Co-Programmation & Développement : Marc-Olivier Méhu
Soutien technique & logistique : Manuel Goepfert

Contact : metmap@orbifly.com




SOURCES & CREDITS :

   NOAA